sensor_id;sensor_type;location;lat;lon;timestamp;P1;durP1;ratioP1;P2;durP2;ratioP2
2474;SDS011;1248;48.694;10.160;2023-11-21T00:01:24;9.80;;;5.50;;
2474;SDS011;1248;48.694;10.160;2023-11-21T00:03:51;10.10;;;4.90;;
2474;SDS011;1248;48.694;10.160;2023-11-21T00:06:21;5.70;;;4.40;;
2474;SDS011;1248;48.694;10.160;2023-11-21T00:08:48;12.50;;;4.30;;
2474;SDS011;1248;48.694;10.160;2023-11-21T00:11:16;6.23;;;4.10;;
2474;SDS011;1248;48.694;10.160;2023-11-21T00:13:43;7.47;;;3.73;;
2474;SDS011;1248;48.694;10.160;2023-11-21T00:16:11;10.27;;;5.50;;
2474;SDS011;1248;48.694;10.160;2023-11-21T00:18:38;8.90;;;4.90;;
2474;SDS011;1248;48.694;10.160;2023-11-21T00:21:05;11.20;;;4.60;;
2474;SDS011;1248;48.694;10.160;2023-11-21T00:23:34;7.90;;;4.73;;
2474;SDS011;1248;48.694;10.160;2023-11-21T00:26:01;7.70;;;4.70;;
2474;SDS011;1248;48.694;10.160;2023-11-21T00:28:29;14.00;;;4.40;;
2474;SDS011;1248;48.694;10.160;2023-11-21T00:30:56;12.63;;;4.73;;
2474;SDS011;1248;48.694;10.160;2023-11-21T00:33:23;8.57;;;4.27;;
2474;SDS011;1248;48.694;10.160;2023-11-21T00:35:50;9.70;;;4.70;;
2474;SDS011;1248;48.694;10.160;2023-11-21T00:38:18;8.83;;;4.33;;
2474;SDS011;1248;48.694;10.160;2023-11-21T00:40:46;11.40;;;4.37;;
2474;SDS011;1248;48.694;10.160;2023-11-21T00:43:14;12.87;;;5.10;;
2474;SDS011;1248;48.694;10.160;2023-11-21T00:45:41;8.20;;;4.47;;
2474;SDS011;1248;48.694;10.160;2023-11-21T00:48:08;9.73;;;4.10;;
2474;SDS011;1248;48.694;10.160;2023-11-21T00:50:35;7.27;;;3.90;;
2474;SDS011;1248;48.694;10.160;2023-11-21T00:53:02;11.30;;;4.87;;
2474;SDS011;1248;48.694;10.160;2023-11-21T00:55:29;9.63;;;4.37;;
2474;SDS011;1248;48.694;10.160;2023-11-21T00:57:57;20.87;;;5.30;;
2474;SDS011;1248;48.694;10.160;2023-11-21T01:00:25;7.67;;;3.63;;
2474;SDS011;1248;48.694;10.160;2023-11-21T01:02:52;7.23;;;3.27;;
2474;SDS011;1248;48.694;10.160;2023-11-21T01:05:19;9.93;;;3.90;;
2474;SDS011;1248;48.694;10.160;2023-11-21T01:07:46;8.13;;;3.70;;
2474;SDS011;1248;48.694;10.160;2023-11-21T01:10:13;9.33;;;4.10;;
2474;SDS011;1248;48.694;10.160;2023-11-21T01:12:42;6.83;;;3.10;;
2474;SDS011;1248;48.694;10.160;2023-11-21T01:15:11;9.13;;;3.70;;
2474;SDS011;1248;48.694;10.160;2023-11-21T01:17:38;7.10;;;3.70;;
2474;SDS011;1248;48.694;10.160;2023-11-21T01:20:06;7.90;;;3.20;;
2474;SDS011;1248;48.694;10.160;2023-11-21T01:22:37;6.70;;;3.60;;
2474;SDS011;1248;48.694;10.160;2023-11-21T01:25:05;6.77;;;4.07;;
2474;SDS011;1248;48.694;10.160;2023-11-21T01:27:33;4.77;;;3.03;;
2474;SDS011;1248;48.694;10.160;2023-11-21T01:30:01;6.80;;;2.90;;
2474;SDS011;1248;48.694;10.160;2023-11-21T01:32:30;6.67;;;2.70;;
2474;SDS011;1248;48.694;10.160;2023-11-21T01:34:57;8.37;;;2.90;;
2474;SDS011;1248;48.694;10.160;2023-11-21T01:37:24;6.50;;;3.63;;
2474;SDS011;1248;48.694;10.160;2023-11-21T01:39:53;7.27;;;3.20;;
2474;SDS011;1248;48.694;10.160;2023-11-21T01:42:20;9.03;;;3.70;;
2474;SDS011;1248;48.694;10.160;2023-11-21T01:44:47;9.03;;;3.40;;
2474;SDS011;1248;48.694;10.160;2023-11-21T01:47:15;9.30;;;3.20;;
2474;SDS011;1248;48.694;10.160;2023-11-21T01:49:44;8.60;;;4.30;;
2474;SDS011;1248;48.694;10.160;2023-11-21T01:52:12;7.50;;;3.40;;
2474;SDS011;1248;48.694;10.160;2023-11-21T01:54:39;8.03;;;3.20;;
2474;SDS011;1248;48.694;10.160;2023-11-21T01:57:06;10.30;;;3.73;;
2474;SDS011;1248;48.694;10.160;2023-11-21T01:59:34;12.83;;;3.63;;
2474;SDS011;1248;48.694;10.160;2023-11-21T02:02:02;10.50;;;4.00;;
2474;SDS011;1248;48.694;10.160;2023-11-21T02:04:31;8.23;;;3.80;;
2474;SDS011;1248;48.694;10.160;2023-11-21T02:06:59;7.63;;;3.63;;
2474;SDS011;1248;48.694;10.160;2023-11-21T02:09:27;6.50;;;3.27;;
2474;SDS011;1248;48.694;10.160;2023-11-21T02:11:55;8.40;;;3.60;;
2474;SDS011;1248;48.694;10.160;2023-11-21T02:14:24;4.60;;;3.07;;
2474;SDS011;1248;48.694;10.160;2023-11-21T02:16:52;8.50;;;3.10;;
2474;SDS011;1248;48.694;10.160;2023-11-21T02:19:19;4.73;;;3.57;;
2474;SDS011;1248;48.694;10.160;2023-11-21T02:21:49;12.47;;;3.37;;
2474;SDS011;1248;48.694;10.160;2023-11-21T02:24:19;6.80;;;3.57;;
2474;SDS011;1248;48.694;10.160;2023-11-21T02:26:50;8.60;;;3.40;;
2474;SDS011;1248;48.694;10.160;2023-11-21T02:29:17;8.23;;;3.83;;
2474;SDS011;1248;48.694;10.160;2023-11-21T02:31:47;11.37;;;3.90;;
2474;SDS011;1248;48.694;10.160;2023-11-21T02:34:14;7.27;;;3.37;;
2474;SDS011;1248;48.694;10.160;2023-11-21T02:36:41;7.73;;;3.50;;
2474;SDS011;1248;48.694;10.160;2023-11-21T02:39:09;6.43;;;3.60;;
2474;SDS011;1248;48.694;10.160;2023-11-21T02:41:38;11.20;;;3.87;;
2474;SDS011;1248;48.694;10.160;2023-11-21T02:44:05;9.13;;;4.10;;
2474;SDS011;1248;48.694;10.160;2023-11-21T02:46:32;11.50;;;3.83;;
2474;SDS011;1248;48.694;10.160;2023-11-21T02:49:00;10.83;;;3.87;;
2474;SDS011;1248;48.694;10.160;2023-11-21T02:51:27;5.40;;;3.37;;
2474;SDS011;1248;48.694;10.160;2023-11-21T02:53:55;15.40;;;3.53;;
2474;SDS011;1248;48.694;10.160;2023-11-21T02:56:24;12.87;;;3.43;;
2474;SDS011;1248;48.694;10.160;2023-11-21T02:58:55;6.67;;;3.60;;
2474;SDS011;1248;48.694;10.160;2023-11-21T03:01:22;7.83;;;2.90;;
2474;SDS011;1248;48.694;10.160;2023-11-21T03:03:50;5.40;;;3.23;;
2474;SDS011;1248;48.694;10.160;2023-11-21T03:06:18;10.57;;;3.70;;
2474;SDS011;1248;48.694;10.160;2023-11-21T03:08:45;6.50;;;3.30;;
2474;SDS011;1248;48.694;10.160;2023-11-21T03:11:12;8.30;;;4.30;;
2474;SDS011;1248;48.694;10.160;2023-11-21T03:13:40;14.37;;;3.47;;
2474;SDS011;1248;48.694;10.160;2023-11-21T03:16:09;5.97;;;3.93;;
2474;SDS011;1248;48.694;10.160;2023-11-21T03:18:37;9.13;;;3.80;;
2474;SDS011;1248;48.694;10.160;2023-11-21T03:21:04;12.67;;;3.80;;
2474;SDS011;1248;48.694;10.160;2023-11-21T03:23:33;4.27;;;3.10;;
2474;SDS011;1248;48.694;10.160;2023-11-21T03:26:00;7.87;;;3.43;;
2474;SDS011;1248;48.694;10.160;2023-11-21T03:28:27;17.67;;;3.83;;
2474;SDS011;1248;48.694;10.160;2023-11-21T03:30:55;9.13;;;3.43;;
2474;SDS011;1248;48.694;10.160;2023-11-21T03:33:24;10.50;;;3.80;;
2474;SDS011;1248;48.694;10.160;2023-11-21T03:35:51;7.93;;;4.23;;
2474;SDS011;1248;48.694;10.160;2023-11-21T03:38:19;15.80;;;3.60;;
2474;SDS011;1248;48.694;10.160;2023-11-21T03:40:46;8.93;;;3.90;;
2474;SDS011;1248;48.694;10.160;2023-11-21T03:43:13;6.97;;;3.43;;
2474;SDS011;1248;48.694;10.160;2023-11-21T03:45:40;17.33;;;4.27;;
2474;SDS011;1248;48.694;10.160;2023-11-21T03:48:08;14.37;;;3.93;;
2474;SDS011;1248;48.694;10.160;2023-11-21T03:50:36;6.93;;;3.60;;
2474;SDS011;1248;48.694;10.160;2023-11-21T03:53:03;5.40;;;3.40;;
2474;SDS011;1248;48.694;10.160;2023-11-21T03:55:30;7.23;;;3.43;;
2474;SDS011;1248;48.694;10.160;2023-11-21T03:57:57;7.77;;;4.20;;
2474;SDS011;1248;48.694;10.160;2023-11-21T04:00:25;5.80;;;4.03;;
2474;SDS011;1248;48.694;10.160;2023-11-21T04:02:52;7.57;;;3.33;;
2474;SDS011;1248;48.694;10.160;2023-11-21T04:05:20;8.77;;;4.27;;
2474;SDS011;1248;48.694;10.160;2023-11-21T04:07:50;8.67;;;3.50;;
2474;SDS011;1248;48.694;10.160;2023-11-21T04:10:17;6.00;;;3.43;;
2474;SDS011;1248;48.694;10.160;2023-11-21T04:12:44;8.90;;;3.97;;
2474;SDS011;1248;48.694;10.160;2023-11-21T04:15:11;6.37;;;3.90;;
2474;SDS011;1248;48.694;10.160;2023-11-21T04:17:39;9.50;;;3.70;;
2474;SDS011;1248;48.694;10.160;2023-11-21T04:20:07;11.27;;;3.60;;
2474;SDS011;1248;48.694;10.160;2023-11-21T04:22:36;15.13;;;4.13;;
2474;SDS011;1248;48.694;10.160;2023-11-21T04:25:05;7.63;;;3.90;;
2474;SDS011;1248;48.694;10.160;2023-11-21T04:27:33;6.43;;;4.53;;
2474;SDS011;1248;48.694;10.160;2023-11-21T04:30:00;11.17;;;3.20;;
2474;SDS011;1248;48.694;10.160;2023-11-21T04:32:27;13.67;;;3.90;;
2474;SDS011;1248;48.694;10.160;2023-11-21T04:34:54;5.73;;;3.20;;
2474;SDS011;1248;48.694;10.160;2023-11-21T04:37:21;5.50;;;2.80;;
2474;SDS011;1248;48.694;10.160;2023-11-21T04:39:48;6.47;;;3.27;;
2474;SDS011;1248;48.694;10.160;2023-11-21T04:42:17;8.00;;;3.73;;
2474;SDS011;1248;48.694;10.160;2023-11-21T04:44:44;9.30;;;3.37;;
2474;SDS011;1248;48.694;10.160;2023-11-21T04:47:11;6.53;;;3.37;;
2474;SDS011;1248;48.694;10.160;2023-11-21T04:49:42;5.00;;;2.90;;
2474;SDS011;1248;48.694;10.160;2023-11-21T04:52:09;10.53;;;3.17;;
2474;SDS011;1248;48.694;10.160;2023-11-21T04:54:37;7.63;;;3.17;;
2474;SDS011;1248;48.694;10.160;2023-11-21T04:57:05;7.40;;;3.57;;
2474;SDS011;1248;48.694;10.160;2023-11-21T04:59:34;7.10;;;3.63;;
2474;SDS011;1248;48.694;10.160;2023-11-21T05:02:01;4.03;;;3.40;;
2474;SDS011;1248;48.694;10.160;2023-11-21T05:04:28;6.10;;;2.97;;
2474;SDS011;1248;48.694;10.160;2023-11-21T05:06:55;10.57;;;3.80;;
2474;SDS011;1248;48.694;10.160;2023-11-21T05:09:22;10.27;;;3.30;;
2474;SDS011;1248;48.694;10.160;2023-11-21T05:11:49;7.27;;;3.37;;
2474;SDS011;1248;48.694;10.160;2023-11-21T05:14:16;7.20;;;3.20;;
2474;SDS011;1248;48.694;10.160;2023-11-21T05:16:45;8.30;;;3.73;;
2474;SDS011;1248;48.694;10.160;2023-11-21T05:19:12;5.60;;;2.97;;
2474;SDS011;1248;48.694;10.160;2023-11-21T05:21:39;7.87;;;4.17;;
2474;SDS011;1248;48.694;10.160;2023-11-21T05:24:07;3.93;;;2.50;;
2474;SDS011;1248;48.694;10.160;2023-11-21T05:26:34;5.93;;;3.70;;
2474;SDS011;1248;48.694;10.160;2023-11-21T05:29:01;9.40;;;3.30;;
2474;SDS011;1248;48.694;10.160;2023-11-21T05:31:28;11.27;;;3.20;;
2474;SDS011;1248;48.694;10.160;2023-11-21T05:33:57;4.03;;;2.17;;
2474;SDS011;1248;48.694;10.160;2023-11-21T05:36:24;8.10;;;3.37;;
2474;SDS011;1248;48.694;10.160;2023-11-21T05:38:51;7.60;;;4.27;;
2474;SDS011;1248;48.694;10.160;2023-11-21T05:41:18;3.90;;;3.13;;
2474;SDS011;1248;48.694;10.160;2023-11-21T05:43:45;9.77;;;3.40;;
2474;SDS011;1248;48.694;10.160;2023-11-21T05:46:12;9.60;;;3.30;;
2474;SDS011;1248;48.694;10.160;2023-11-21T05:48:39;7.40;;;3.13;;
2474;SDS011;1248;48.694;10.160;2023-11-21T05:51:09;4.47;;;3.30;;
2474;SDS011;1248;48.694;10.160;2023-11-21T05:53:38;11.53;;;4.10;;
2474;SDS011;1248;48.694;10.160;2023-11-21T05:56:05;8.57;;;4.17;;
2474;SDS011;1248;48.694;10.160;2023-11-21T05:58:33;6.50;;;3.80;;
2474;SDS011;1248;48.694;10.160;2023-11-21T06:01:00;9.50;;;3.40;;
2474;SDS011;1248;48.694;10.160;2023-11-21T06:03:27;10.63;;;4.07;;
2474;SDS011;1248;48.694;10.160;2023-11-21T06:05:54;10.67;;;3.93;;
2474;SDS011;1248;48.694;10.160;2023-11-21T06:08:22;5.47;;;3.73;;
2474;SDS011;1248;48.694;10.160;2023-11-21T06:10:50;8.80;;;4.90;;
2474;SDS011;1248;48.694;10.160;2023-11-21T06:13:17;10.33;;;3.70;;
2474;SDS011;1248;48.694;10.160;2023-11-21T06:15:49;5.23;;;4.57;;
2474;SDS011;1248;48.694;10.160;2023-11-21T06:18:16;6.70;;;3.60;;
2474;SDS011;1248;48.694;10.160;2023-11-21T06:20:45;13.63;;;4.17;;
2474;SDS011;1248;48.694;10.160;2023-11-21T06:23:12;10.53;;;4.63;;
2474;SDS011;1248;48.694;10.160;2023-11-21T06:25:41;9.13;;;3.57;;
2474;SDS011;1248;48.694;10.160;2023-11-21T06:28:08;6.50;;;3.50;;
2474;SDS011;1248;48.694;10.160;2023-11-21T06:30:35;7.40;;;4.27;;
2474;SDS011;1248;48.694;10.160;2023-11-21T06:33:02;9.37;;;5.10;;
2474;SDS011;1248;48.694;10.160;2023-11-21T06:35:29;8.10;;;4.53;;
2474;SDS011;1248;48.694;10.160;2023-11-21T06:37:59;9.80;;;3.90;;
2474;SDS011;1248;48.694;10.160;2023-11-21T06:40:26;3.93;;;3.60;;
2474;SDS011;1248;48.694;10.160;2023-11-21T06:42:54;7.03;;;3.67;;
2474;SDS011;1248;48.694;10.160;2023-11-21T06:45:24;10.90;;;6.10;;
2474;SDS011;1248;48.694;10.160;2023-11-21T06:47:51;32.70;;;15.13;;
2474;SDS011;1248;48.694;10.160;2023-11-21T06:50:18;40.00;;;18.07;;
2474;SDS011;1248;48.694;10.160;2023-11-21T06:52:45;26.77;;;12.93;;
2474;SDS011;1248;48.694;10.160;2023-11-21T06:55:12;6.57;;;4.00;;
2474;SDS011;1248;48.694;10.160;2023-11-21T06:57:40;8.20;;;4.87;;
2474;SDS011;1248;48.694;10.160;2023-11-21T07:00:10;8.53;;;3.63;;
2474;SDS011;1248;48.694;10.160;2023-11-21T07:02:38;8.43;;;4.07;;
2474;SDS011;1248;48.694;10.160;2023-11-21T07:05:05;15.40;;;9.00;;
2474;SDS011;1248;48.694;10.160;2023-11-21T07:07:32;10.33;;;5.13;;
2474;SDS011;1248;48.694;10.160;2023-11-21T07:10:01;7.73;;;3.90;;
2474;SDS011;1248;48.694;10.160;2023-11-21T07:12:29;7.70;;;4.53;;
2474;SDS011;1248;48.694;10.160;2023-11-21T07:14:56;8.53;;;4.90;;
2474;SDS011;1248;48.694;10.160;2023-11-21T07:17:25;4.90;;;3.50;;
2474;SDS011;1248;48.694;10.160;2023-11-21T07:19:52;10.47;;;4.60;;
2474;SDS011;1248;48.694;10.160;2023-11-21T07:22:19;9.93;;;4.00;;
2474;SDS011;1248;48.694;10.160;2023-11-21T07:24:47;6.03;;;4.20;;
2474;SDS011;1248;48.694;10.160;2023-11-21T07:27:15;10.60;;;6.23;;
2474;SDS011;1248;48.694;10.160;2023-11-21T07:29:42;10.03;;;4.90;;
2474;SDS011;1248;48.694;10.160;2023-11-21T07:32:09;7.97;;;4.80;;
2474;SDS011;1248;48.694;10.160;2023-11-21T07:34:37;6.03;;;4.30;;
2474;SDS011;1248;48.694;10.160;2023-11-21T07:37:04;14.00;;;5.03;;
2474;SDS011;1248;48.694;10.160;2023-11-21T07:39:32;9.07;;;4.70;;
2474;SDS011;1248;48.694;10.160;2023-11-21T07:41:59;8.10;;;4.87;;
2474;SDS011;1248;48.694;10.160;2023-11-21T07:44:26;13.20;;;5.20;;
2474;SDS011;1248;48.694;10.160;2023-11-21T07:46:53;9.15;;;4.53;;
2474;SDS011;1248;48.694;10.160;2023-11-21T07:49:22;5.57;;;4.20;;
2474;SDS011;1248;48.694;10.160;2023-11-21T07:51:51;7.50;;;5.40;;
2474;SDS011;1248;48.694;10.160;2023-11-21T07:54:18;16.20;;;4.77;;
2474;SDS011;1248;48.694;10.160;2023-11-21T07:56:46;9.33;;;4.50;;
2474;SDS011;1248;48.694;10.160;2023-11-21T07:59:14;7.03;;;4.27;;
2474;SDS011;1248;48.694;10.160;2023-11-21T08:01:41;7.93;;;4.23;;
2474;SDS011;1248;48.694;10.160;2023-11-21T08:04:08;6.80;;;4.57;;
2474;SDS011;1248;48.694;10.160;2023-11-21T08:06:35;4.57;;;4.07;;
2474;SDS011;1248;48.694;10.160;2023-11-21T08:09:05;6.73;;;4.50;;
2474;SDS011;1248;48.694;10.160;2023-11-21T08:11:33;7.80;;;4.27;;
2474;SDS011;1248;48.694;10.160;2023-11-21T08:14:01;4.63;;;3.30;;
2474;SDS011;1248;48.694;10.160;2023-11-21T08:16:27;7.30;;;3.87;;
2474;SDS011;1248;48.694;10.160;2023-11-21T08:18:54;3.60;;;3.10;;
2474;SDS011;1248;48.694;10.160;2023-11-21T08:21:21;7.13;;;3.70;;
2474;SDS011;1248;48.694;10.160;2023-11-21T08:23:49;5.10;;;3.50;;
2474;SDS011;1248;48.694;10.160;2023-11-21T08:26:21;4.53;;;3.67;;
2474;SDS011;1248;48.694;10.160;2023-11-21T08:28:49;3.17;;;2.87;;
2474;SDS011;1248;48.694;10.160;2023-11-21T08:31:23;4.90;;;2.80;;
2474;SDS011;1248;48.694;10.160;2023-11-21T08:33:50;3.77;;;2.40;;
2474;SDS011;1248;48.694;10.160;2023-11-21T08:36:18;4.60;;;3.10;;
2474;SDS011;1248;48.694;10.160;2023-11-21T08:38:46;6.70;;;3.17;;
2474;SDS011;1248;48.694;10.160;2023-11-21T08:41:14;7.63;;;2.40;;
2474;SDS011;1248;48.694;10.160;2023-11-21T08:43:43;3.03;;;2.07;;
2474;SDS011;1248;48.694;10.160;2023-11-21T08:46:10;8.93;;;2.50;;
2474;SDS011;1248;48.694;10.160;2023-11-21T08:48:37;2.10;;;1.80;;
2474;SDS011;1248;48.694;10.160;2023-11-21T08:51:04;2.80;;;2.30;;
2474;SDS011;1248;48.694;10.160;2023-11-21T08:53:32;5.80;;;1.90;;
2474;SDS011;1248;48.694;10.160;2023-11-21T08:55:59;4.00;;;2.30;;
2474;SDS011;1248;48.694;10.160;2023-11-21T08:58:26;2.90;;;1.70;;
2474;SDS011;1248;48.694;10.160;2023-11-21T09:00:54;8.93;;;2.40;;
2474;SDS011;1248;48.694;10.160;2023-11-21T09:03:21;6.67;;;1.67;;
2474;SDS011;1248;48.694;10.160;2023-11-21T09:05:48;2.80;;;1.97;;
2474;SDS011;1248;48.694;10.160;2023-11-21T09:08:16;3.07;;;2.10;;
2474;SDS011;1248;48.694;10.160;2023-11-21T09:10:43;5.57;;;2.37;;
2474;SDS011;1248;48.694;10.160;2023-11-21T09:13:12;3.93;;;2.17;;
2474;SDS011;1248;48.694;10.160;2023-11-21T09:15:42;1.80;;;1.70;;
2474;SDS011;1248;48.694;10.160;2023-11-21T09:18:13;2.70;;;1.77;;
2474;SDS011;1248;48.694;10.160;2023-11-21T09:20:40;3.67;;;2.33;;
2474;SDS011;1248;48.694;10.160;2023-11-21T09:23:08;3.90;;;2.33;;
2474;SDS011;1248;48.694;10.160;2023-11-21T09:25:35;4.03;;;2.10;;
2474;SDS011;1248;48.694;10.160;2023-11-21T09:28:02;3.17;;;2.10;;
2474;SDS011;1248;48.694;10.160;2023-11-21T09:30:33;3.03;;;1.83;;
2474;SDS011;1248;48.694;10.160;2023-11-21T09:33:00;1.77;;;1.67;;
2474;SDS011;1248;48.694;10.160;2023-11-21T09:35:29;1.80;;;1.70;;
2474;SDS011;1248;48.694;10.160;2023-11-21T09:37:56;5.10;;;1.80;;
2474;SDS011;1248;48.694;10.160;2023-11-21T09:40:23;2.13;;;1.70;;
2474;SDS011;1248;48.694;10.160;2023-11-21T09:42:54;3.03;;;2.00;;
2474;SDS011;1248;48.694;10.160;2023-11-21T09:45:24;2.70;;;1.80;;
2474;SDS011;1248;48.694;10.160;2023-11-21T09:47:52;2.27;;;1.70;;
2474;SDS011;1248;48.694;10.160;2023-11-21T09:50:21;1.90;;;1.63;;
2474;SDS011;1248;48.694;10.160;2023-11-21T09:52:57;2.93;;;2.20;;
2474;SDS011;1248;48.694;10.160;2023-11-21T09:55:26;2.93;;;2.27;;
2474;SDS011;1248;48.694;10.160;2023-11-21T09:57:56;2.50;;;1.67;;
2474;SDS011;1248;48.694;10.160;2023-11-21T10:00:23;2.07;;;1.50;;
2474;SDS011;1248;48.694;10.160;2023-11-21T10:02:50;2.10;;;1.60;;
2474;SDS011;1248;48.694;10.160;2023-11-21T10:05:18;2.27;;;1.90;;
2474;SDS011;1248;48.694;10.160;2023-11-21T10:07:48;2.27;;;1.30;;
2474;SDS011;1248;48.694;10.160;2023-11-21T10:10:18;3.50;;;1.63;;
2474;SDS011;1248;48.694;10.160;2023-11-21T10:12:48;1.97;;;1.67;;
2474;SDS011;1248;48.694;10.160;2023-11-21T10:15:20;2.03;;;1.80;;
2474;SDS011;1248;48.694;10.160;2023-11-21T10:17:49;4.47;;;1.40;;
2474;SDS011;1248;48.694;10.160;2023-11-21T10:20:17;3.77;;;1.80;;
2474;SDS011;1248;48.694;10.160;2023-11-21T10:22:45;1.70;;;1.60;;
2474;SDS011;1248;48.694;10.160;2023-11-21T10:25:13;1.70;;;1.43;;
2474;SDS011;1248;48.694;10.160;2023-11-21T10:27:41;2.80;;;1.80;;
2474;SDS011;1248;48.694;10.160;2023-11-21T10:30:09;3.63;;;2.40;;
2474;SDS011;1248;48.694;10.160;2023-11-21T10:32:37;1.90;;;1.30;;
2474;SDS011;1248;48.694;10.160;2023-11-21T10:35:06;1.90;;;1.50;;
2474;SDS011;1248;48.694;10.160;2023-11-21T10:37:35;2.67;;;1.40;;
2474;SDS011;1248;48.694;10.160;2023-11-21T10:40:05;2.13;;;1.60;;
2474;SDS011;1248;48.694;10.160;2023-11-21T10:42:36;1.93;;;1.30;;
2474;SDS011;1248;48.694;10.160;2023-11-21T10:45:03;1.40;;;1.30;;
2474;SDS011;1248;48.694;10.160;2023-11-21T10:47:35;2.37;;;1.33;;
2474;SDS011;1248;48.694;10.160;2023-11-21T10:50:03;2.60;;;1.50;;
2474;SDS011;1248;48.694;10.160;2023-11-21T10:52:31;2.23;;;1.30;;
2474;SDS011;1248;48.694;10.160;2023-11-21T10:54:59;1.33;;;1.23;;
2474;SDS011;1248;48.694;10.160;2023-11-21T10:57:29;2.03;;;1.20;;
2474;SDS011;1248;48.694;10.160;2023-11-21T10:59:57;3.30;;;1.20;;
2474;SDS011;1248;48.694;10.160;2023-11-21T11:02:25;1.70;;;1.50;;
2474;SDS011;1248;48.694;10.160;2023-11-21T11:04:53;3.40;;;1.60;;
2474;SDS011;1248;48.694;10.160;2023-11-21T11:07:24;1.73;;;1.53;;
2474;SDS011;1248;48.694;10.160;2023-11-21T11:09:53;1.73;;;1.63;;
2474;SDS011;1248;48.694;10.160;2023-11-21T11:12:20;2.17;;;1.60;;
2474;SDS011;1248;48.694;10.160;2023-11-21T11:14:47;2.90;;;1.30;;
2474;SDS011;1248;48.694;10.160;2023-11-21T11:17:16;3.57;;;1.73;;
2474;SDS011;1248;48.694;10.160;2023-11-21T11:19:45;2.30;;;2.03;;
2474;SDS011;1248;48.694;10.160;2023-11-21T11:22:16;1.80;;;1.50;;
2474;SDS011;1248;48.694;10.160;2023-11-21T11:24:54;2.13;;;1.63;;
2474;SDS011;1248;48.694;10.160;2023-11-21T11:27:40;4.50;;;1.70;;
2474;SDS011;1248;48.694;10.160;2023-11-21T11:30:16;2.90;;;1.60;;
2474;SDS011;1248;48.694;10.160;2023-11-21T11:32:50;7.50;;;2.73;;
2474;SDS011;1248;48.694;10.160;2023-11-21T11:35:24;5.87;;;2.73;;
2474;SDS011;1248;48.694;10.160;2023-11-21T11:37:56;8.33;;;3.27;;
2474;SDS011;1248;48.694;10.160;2023-11-21T11:40:24;5.13;;;2.23;;
2474;SDS011;1248;48.694;10.160;2023-11-21T11:42:56;3.00;;;1.60;;
2474;SDS011;1248;48.694;10.160;2023-11-21T11:45:24;1.40;;;1.30;;
2474;SDS011;1248;48.694;10.160;2023-11-21T11:47:57;1.40;;;1.30;;
2474;SDS011;1248;48.694;10.160;2023-11-21T11:50:24;1.80;;;1.70;;
2474;SDS011;1248;48.694;10.160;2023-11-21T11:52:52;1.50;;;1.40;;
2474;SDS011;1248;48.694;10.160;2023-11-21T11:55:20;2.50;;;1.33;;
2474;SDS011;1248;48.694;10.160;2023-11-21T11:57:49;1.80;;;1.50;;
2474;SDS011;1248;48.694;10.160;2023-11-21T12:00:17;2.17;;;1.20;;
2474;SDS011;1248;48.694;10.160;2023-11-21T12:02:47;1.60;;;1.50;;
2474;SDS011;1248;48.694;10.160;2023-11-21T12:05:16;1.30;;;1.10;;
2474;SDS011;1248;48.694;10.160;2023-11-21T12:07:45;1.30;;;1.20;;
2474;SDS011;1248;48.694;10.160;2023-11-21T12:10:13;1.20;;;1.10;;
2474;SDS011;1248;48.694;10.160;2023-11-21T12:12:45;2.90;;;1.73;;
2474;SDS011;1248;48.694;10.160;2023-11-21T12:15:12;1.50;;;1.40;;
2474;SDS011;1248;48.694;10.160;2023-11-21T12:17:40;5.43;;;1.63;;
2474;SDS011;1248;48.694;10.160;2023-11-21T12:20:09;1.50;;;1.30;;
2474;SDS011;1248;48.694;10.160;2023-11-21T12:22:45;4.07;;;1.20;;
2474;SDS011;1248;48.694;10.160;2023-11-21T12:25:16;2.20;;;1.10;;
2474;SDS011;1248;48.694;10.160;2023-11-21T12:27:44;2.03;;;1.23;;
2474;SDS011;1248;48.694;10.160;2023-11-21T12:30:12;1.30;;;1.20;;
2474;SDS011;1248;48.694;10.160;2023-11-21T12:32:41;2.80;;;1.13;;
2474;SDS011;1248;48.694;10.160;2023-11-21T12:35:09;2.07;;;1.40;;
2474;SDS011;1248;48.694;10.160;2023-11-21T12:37:37;1.50;;;1.40;;
2474;SDS011;1248;48.694;10.160;2023-11-21T12:40:07;1.57;;;1.40;;
2474;SDS011;1248;48.694;10.160;2023-11-21T12:42:37;4.27;;;1.13;;
2474;SDS011;1248;48.694;10.160;2023-11-21T12:45:08;1.60;;;1.50;;
2474;SDS011;1248;48.694;10.160;2023-11-21T12:47:40;2.90;;;1.70;;
2474;SDS011;1248;48.694;10.160;2023-11-21T12:50:08;2.37;;;1.40;;
2474;SDS011;1248;48.694;10.160;2023-11-21T12:52:40;2.23;;;1.50;;
2474;SDS011;1248;48.694;10.160;2023-11-21T12:55:11;1.50;;;1.40;;
2474;SDS011;1248;48.694;10.160;2023-11-21T12:57:41;4.80;;;1.80;;
2474;SDS011;1248;48.694;10.160;2023-11-21T13:00:10;1.73;;;1.60;;
2474;SDS011;1248;48.694;10.160;2023-11-21T13:02:43;2.00;;;1.50;;
2474;SDS011;1248;48.694;10.160;2023-11-21T13:05:10;1.60;;;1.50;;
2474;SDS011;1248;48.694;10.160;2023-11-21T13:07:47;1.73;;;1.57;;
2474;SDS011;1248;48.694;10.160;2023-11-21T13:10:17;1.40;;;1.30;;
2474;SDS011;1248;48.694;10.160;2023-11-21T13:12:44;1.33;;;1.23;;
2474;SDS011;1248;48.694;10.160;2023-11-21T13:15:13;1.47;;;1.20;;
2474;SDS011;1248;48.694;10.160;2023-11-21T13:17:42;1.50;;;1.40;;
2474;SDS011;1248;48.694;10.160;2023-11-21T13:20:10;1.30;;;1.20;;
2474;SDS011;1248;48.694;10.160;2023-11-21T13:22:45;1.40;;;1.00;;
2474;SDS011;1248;48.694;10.160;2023-11-21T13:25:15;1.93;;;1.60;;
2474;SDS011;1248;48.694;10.160;2023-11-21T13:27:45;1.67;;;1.30;;
2474;SDS011;1248;48.694;10.160;2023-11-21T13:30:13;2.17;;;1.40;;
2474;SDS011;1248;48.694;10.160;2023-11-21T13:32:42;2.17;;;1.30;;
2474;SDS011;1248;48.694;10.160;2023-11-21T13:35:11;1.40;;;1.30;;
2474;SDS011;1248;48.694;10.160;2023-11-21T13:37:49;4.70;;;1.17;;
2474;SDS011;1248;48.694;10.160;2023-11-21T13:40:19;2.40;;;2.03;;
2474;SDS011;1248;48.694;10.160;2023-11-21T13:42:50;1.50;;;1.40;;
2474;SDS011;1248;48.694;10.160;2023-11-21T13:45:20;1.10;;;1.00;;
2474;SDS011;1248;48.694;10.160;2023-11-21T13:47:48;1.50;;;1.20;;
2474;SDS011;1248;48.694;10.160;2023-11-21T13:50:18;1.40;;;1.30;;
2474;SDS011;1248;48.694;10.160;2023-11-21T13:52:49;1.83;;;1.63;;
2474;SDS011;1248;48.694;10.160;2023-11-21T13:55:18;1.30;;;1.20;;
2474;SDS011;1248;48.694;10.160;2023-11-21T13:57:47;2.27;;;1.60;;
2474;SDS011;1248;48.694;10.160;2023-11-21T14:00:19;2.20;;;1.50;;
2474;SDS011;1248;48.694;10.160;2023-11-21T14:03:07;2.30;;;1.50;;
2474;SDS011;1248;48.694;10.160;2023-11-21T14:05:43;2.03;;;1.50;;
2474;SDS011;1248;48.694;10.160;2023-11-21T14:08:12;1.20;;;1.10;;
2474;SDS011;1248;48.694;10.160;2023-11-21T14:10:42;1.17;;;1.07;;
2474;SDS011;1248;48.694;10.160;2023-11-21T14:13:10;11.00;;;6.00;;
2474;SDS011;1248;48.694;10.160;2023-11-21T14:15:39;9.87;;;5.60;;
2474;SDS011;1248;48.694;10.160;2023-11-21T14:18:10;3.50;;;2.50;;
2474;SDS011;1248;48.694;10.160;2023-11-21T14:20:40;2.30;;;2.10;;
2474;SDS011;1248;48.694;10.160;2023-11-21T14:23:07;1.47;;;1.37;;
2474;SDS011;1248;48.694;10.160;2023-11-21T14:25:36;1.77;;;1.40;;
2474;SDS011;1248;48.694;10.160;2023-11-21T14:28:05;2.03;;;1.80;;
2474;SDS011;1248;48.694;10.160;2023-11-21T14:30:32;1.80;;;1.70;;
2474;SDS011;1248;48.694;10.160;2023-11-21T14:33:03;2.17;;;1.30;;
2474;SDS011;1248;48.694;10.160;2023-11-21T14:35:30;2.50;;;1.77;;
2474;SDS011;1248;48.694;10.160;2023-11-21T14:37:58;2.90;;;1.83;;
2474;SDS011;1248;48.694;10.160;2023-11-21T14:40:26;2.00;;;1.67;;
2474;SDS011;1248;48.694;10.160;2023-11-21T14:42:59;1.40;;;1.30;;
2474;SDS011;1248;48.694;10.160;2023-11-21T14:45:26;2.10;;;1.60;;
2474;SDS011;1248;48.694;10.160;2023-11-21T14:47:54;1.40;;;1.30;;
2474;SDS011;1248;48.694;10.160;2023-11-21T14:50:33;3.60;;;1.93;;
2474;SDS011;1248;48.694;10.160;2023-11-21T14:53:11;4.20;;;2.13;;
2474;SDS011;1248;48.694;10.160;2023-11-21T14:55:38;4.90;;;2.80;;
2474;SDS011;1248;48.694;10.160;2023-11-21T14:58:19;4.77;;;1.80;;
2474;SDS011;1248;48.694;10.160;2023-11-21T15:00:52;2.03;;;1.83;;
2474;SDS011;1248;48.694;10.160;2023-11-21T15:03:23;1.33;;;1.20;;
2474;SDS011;1248;48.694;10.160;2023-11-21T15:06:10;11.53;;;1.57;;
2474;SDS011;1248;48.694;10.160;2023-11-21T15:08:52;1.57;;;1.47;;